sensor_id;sensor_type;location;lat;lon;timestamp;pressure;altitude;pressure_sealevel;temperature;humidity
19783;BME280;10051;40.294;-3.754;2022-09-01T00:01:50;94167.06;;;26.46;21.65
19783;BME280;10051;40.294;-3.754;2022-09-01T00:04:24;94170.53;;;26.43;21.67
19783;BME280;10051;40.294;-3.754;2022-09-01T00:06:53;94094.47;;;25.90;21.77
19783;BME280;10051;40.294;-3.754;2022-09-01T00:09:21;94094.47;;;25.90;21.70
19783;BME280;10051;40.294;-3.754;2022-09-01T00:11:51;94124.56;;;26.10;21.80
19783;BME280;10051;40.294;-3.754;2022-09-01T00:14:19;94160.09;;;26.34;21.77
19783;BME280;10051;40.294;-3.754;2022-09-01T00:16:45;94167.78;;;26.28;21.72
19783;BME280;10051;40.294;-3.754;2022-09-01T00:19:11;94097.50;;;25.78;21.80
19783;BME280;10051;40.294;-3.754;2022-09-01T00:21:39;94159.25;;;26.19;21.68
19783;BME280;10051;40.294;-3.754;2022-09-01T00:24:06;94164.97;;;26.10;21.84
19783;BME280;10051;40.294;-3.754;2022-09-01T00:26:32;94115.94;;;25.76;21.74
19783;BME280;10051;40.294;-3.754;2022-09-01T00:28:57;94085.84;;;25.52;21.95
19783;BME280;10051;40.294;-3.754;2022-09-01T00:31:23;94107.88;;;25.72;21.89
19783;BME280;10051;40.294;-3.754;2022-09-01T00:33:50;94155.31;;;26.06;21.92
19783;BME280;10051;40.294;-3.754;2022-09-01T00:36:17;94147.59;;;25.97;22.02
19783;BME280;10051;40.294;-3.754;2022-09-01T00:38:43;94145.31;;;25.99;22.22
19783;BME280;10051;40.294;-3.754;2022-09-01T00:41:09;94110.53;;;25.65;22.30
19783;BME280;10051;40.294;-3.754;2022-09-01T00:43:50;94137.16;;;25.84;22.13
19783;BME280;10051;40.294;-3.754;2022-09-01T00:46:22;94149.94;;;25.98;22.28
19783;BME280;10051;40.294;-3.754;2022-09-01T00:48:56;94052.53;;;25.19;22.41
19783;BME280;10051;40.294;-3.754;2022-09-01T00:51:24;94126.75;;;25.79;22.50
19783;BME280;10051;40.294;-3.754;2022-09-01T00:53:51;94066.53;;;25.43;22.48
19783;BME280;10051;40.294;-3.754;2022-09-01T00:56:21;94133.69;;;25.84;22.41
19783;BME280;10051;40.294;-3.754;2022-09-01T00:58:48;93984.28;;;24.78;22.47
19783;BME280;10051;40.294;-3.754;2022-09-01T01:01:16;94138.25;;;25.73;22.63
19783;BME280;10051;40.294;-3.754;2022-09-01T01:03:41;94101.56;;;25.46;22.58
19783;BME280;10051;40.294;-3.754;2022-09-01T01:06:12;94045.59;;;25.11;22.44
19783;BME280;10051;40.294;-3.754;2022-09-01T01:08:42;94107.38;;;25.56;22.55
19783;BME280;10051;40.294;-3.754;2022-09-01T01:11:15;94052.94;;;25.21;22.76
19783;BME280;10051;40.294;-3.754;2022-09-01T01:14:04;94137.44;;;25.65;22.71
19783;BME280;10051;40.294;-3.754;2022-09-01T01:16:37;94137.41;;;25.58;22.76
19783;BME280;10051;40.294;-3.754;2022-09-01T01:19:07;94132.75;;;25.54;23.00
19783;BME280;10051;40.294;-3.754;2022-09-01T01:21:54;94000.31;;;24.64;23.10
19783;BME280;10051;40.294;-3.754;2022-09-01T01:24:39;94111.19;;;25.47;23.03
19783;BME280;10051;40.294;-3.754;2022-09-01T01:27:04;94060.25;;;25.20;23.03
19783;BME280;10051;40.294;-3.754;2022-09-01T01:29:33;94121.59;;;25.49;23.21
19783;BME280;10051;40.294;-3.754;2022-09-01T01:32:00;94116.16;;;25.45;23.27
19783;BME280;10051;40.294;-3.754;2022-09-01T01:34:26;93993.00;;;24.61;22.98
19783;BME280;10051;40.294;-3.754;2022-09-01T01:36:53;94137.75;;;25.52;23.09
19783;BME280;10051;40.294;-3.754;2022-09-01T01:39:22;94010.75;;;24.73;23.27
19783;BME280;10051;40.294;-3.754;2022-09-01T01:41:50;93974.41;;;24.41;23.35
19783;BME280;10051;40.294;-3.754;2022-09-01T01:44:22;94053.22;;;25.05;22.96
19783;BME280;10051;40.294;-3.754;2022-09-01T01:46:51;94131.97;;;25.50;23.20
19783;BME280;10051;40.294;-3.754;2022-09-01T01:49:20;94118.88;;;25.49;23.06
19783;BME280;10051;40.294;-3.754;2022-09-01T01:51:51;94001.47;;;24.67;23.25
19783;BME280;10051;40.294;-3.754;2022-09-01T01:54:20;94019.22;;;24.75;23.17
19783;BME280;10051;40.294;-3.754;2022-09-01T01:56:47;94028.56;;;24.92;23.36
19783;BME280;10051;40.294;-3.754;2022-09-01T01:59:12;94079.03;;;25.13;23.58
19783;BME280;10051;40.294;-3.754;2022-09-01T02:01:40;94111.06;;;25.33;23.30
19783;BME280;10051;40.294;-3.754;2022-09-01T02:04:08;94117.25;;;25.37;23.49
19783;BME280;10051;40.294;-3.754;2022-09-01T02:06:36;94100.25;;;25.26;23.50
19783;BME280;10051;40.294;-3.754;2022-09-01T02:09:06;94060.06;;;24.91;23.52
19783;BME280;10051;40.294;-3.754;2022-09-01T02:11:33;94111.09;;;25.40;23.32
19783;BME280;10051;40.294;-3.754;2022-09-01T02:14:02;94094.09;;;25.25;23.52
19783;BME280;10051;40.294;-3.754;2022-09-01T02:16:30;94108.75;;;25.31;23.45
19783;BME280;10051;40.294;-3.754;2022-09-01T02:18:57;94107.59;;;25.29;23.68
19783;BME280;10051;40.294;-3.754;2022-09-01T02:21:24;94107.94;;;25.27;23.55
19783;BME280;10051;40.294;-3.754;2022-09-01T02:24:03;94037.34;;;24.85;23.65
19783;BME280;10051;40.294;-3.754;2022-09-01T02:26:41;94084.81;;;25.15;23.64
19783;BME280;10051;40.294;-3.754;2022-09-01T02:29:11;93997.13;;;24.51;23.65
19783;BME280;10051;40.294;-3.754;2022-09-01T02:31:42;94078.28;;;25.13;23.47
19783;BME280;10051;40.294;-3.754;2022-09-01T02:34:09;94097.97;;;25.31;23.61
19783;BME280;10051;40.294;-3.754;2022-09-01T02:36:46;94095.22;;;25.20;23.64
19783;BME280;10051;40.294;-3.754;2022-09-01T02:39:17;94030.28;;;24.70;23.88
19783;BME280;10051;40.294;-3.754;2022-09-01T02:41:43;94081.28;;;25.04;23.91
19783;BME280;10051;40.294;-3.754;2022-09-01T02:44:08;93953.44;;;24.13;24.05
19783;BME280;10051;40.294;-3.754;2022-09-01T02:46:38;94041.88;;;24.74;23.95
19783;BME280;10051;40.294;-3.754;2022-09-01T02:49:10;94060.75;;;24.81;24.13
19783;BME280;10051;40.294;-3.754;2022-09-01T02:51:41;94074.66;;;24.90;24.16
19783;BME280;10051;40.294;-3.754;2022-09-01T02:54:07;94088.63;;;25.11;24.05
19783;BME280;10051;40.294;-3.754;2022-09-01T02:56:33;94039.38;;;24.54;24.36
19783;BME280;10051;40.294;-3.754;2022-09-01T02:58:58;94036.81;;;24.69;24.36
19783;BME280;10051;40.294;-3.754;2022-09-01T03:01:30;94087.09;;;25.09;24.57
19783;BME280;10051;40.294;-3.754;2022-09-01T03:04:01;94089.00;;;25.09;24.46
19783;BME280;10051;40.294;-3.754;2022-09-01T03:06:27;94088.66;;;25.14;25.51
19783;BME280;10051;40.294;-3.754;2022-09-01T03:08:55;94082.28;;;24.85;25.95
19783;BME280;10051;40.294;-3.754;2022-09-01T03:11:23;94015.66;;;24.18;25.99
19783;BME280;10051;40.294;-3.754;2022-09-01T03:13:50;94018.16;;;24.00;25.48
19783;BME280;10051;40.294;-3.754;2022-09-01T03:16:15;93983.72;;;23.72;25.20
19783;BME280;10051;40.294;-3.754;2022-09-01T03:18:41;93982.84;;;23.64;25.79
19783;BME280;10051;40.294;-3.754;2022-09-01T03:21:10;94024.09;;;23.83;26.45
19783;BME280;10051;40.294;-3.754;2022-09-01T03:23:43;94077.06;;;24.20;26.29
19783;BME280;10051;40.294;-3.754;2022-09-01T03:26:09;94080.47;;;24.17;26.09
19783;BME280;10051;40.294;-3.754;2022-09-01T03:28:35;93912.44;;;23.10;26.01
19783;BME280;10051;40.294;-3.754;2022-09-01T03:31:02;94024.22;;;23.63;26.34
19783;BME280;10051;40.294;-3.754;2022-09-01T03:33:28;94035.03;;;23.67;26.44
19783;BME280;10051;40.294;-3.754;2022-09-01T03:35:54;94065.91;;;23.84;26.70
19783;BME280;10051;40.294;-3.754;2022-09-01T03:38:22;94061.56;;;23.75;26.17
19783;BME280;10051;40.294;-3.754;2022-09-01T03:40:54;94074.91;;;23.68;26.35
19783;BME280;10051;40.294;-3.754;2022-09-01T03:43:24;94041.66;;;23.46;26.55
19783;BME280;10051;40.294;-3.754;2022-09-01T03:45:53;93974.53;;;23.12;26.77
19783;BME280;10051;40.294;-3.754;2022-09-01T03:48:20;94096.09;;;24.08;26.71
19783;BME280;10051;40.294;-3.754;2022-09-01T03:50:47;94101.69;;;23.95;26.76
19783;BME280;10051;40.294;-3.754;2022-09-01T03:53:18;94102.34;;;23.85;27.07
19783;BME280;10051;40.294;-3.754;2022-09-01T03:55:46;94093.28;;;23.66;26.60
19783;BME280;10051;40.294;-3.754;2022-09-01T03:58:14;93975.16;;;23.01;26.39
19783;BME280;10051;40.294;-3.754;2022-09-01T04:00:46;94102.25;;;23.77;26.68
19783;BME280;10051;40.294;-3.754;2022-09-01T04:03:12;94063.41;;;23.37;26.76
19783;BME280;10051;40.294;-3.754;2022-09-01T04:05:42;94100.34;;;23.48;26.96
19783;BME280;10051;40.294;-3.754;2022-09-01T04:08:08;94094.03;;;23.36;27.36
19783;BME280;10051;40.294;-3.754;2022-09-01T04:10:51;94047.66;;;22.82;27.47
19783;BME280;10051;40.294;-3.754;2022-09-01T04:13:22;94045.22;;;22.73;27.62
19783;BME280;10051;40.294;-3.754;2022-09-01T04:15:49;94045.94;;;22.70;27.99
19783;BME280;10051;40.294;-3.754;2022-09-01T04:18:15;94020.34;;;22.49;27.67
19783;BME280;10051;40.294;-3.754;2022-09-01T04:20:49;93941.28;;;21.89;28.13
19783;BME280;10051;40.294;-3.754;2022-09-01T04:23:30;94074.88;;;22.84;28.10
19783;BME280;10051;40.294;-3.754;2022-09-01T04:26:04;94091.75;;;23.11;27.64
19783;BME280;10051;40.294;-3.754;2022-09-01T04:28:35;94082.53;;;22.85;27.91
19783;BME280;10051;40.294;-3.754;2022-09-01T04:31:04;94006.38;;;22.40;27.95
19783;BME280;10051;40.294;-3.754;2022-09-01T04:33:33;94050.50;;;22.69;28.04
19783;BME280;10051;40.294;-3.754;2022-09-01T04:36:05;94087.06;;;22.81;28.21
19783;BME280;10051;40.294;-3.754;2022-09-01T04:38:31;94079.50;;;22.87;27.99
19783;BME280;10051;40.294;-3.754;2022-09-01T04:41:05;93958.72;;;22.26;27.96
19783;BME280;10051;40.294;-3.754;2022-09-01T04:43:32;93898.34;;;21.82;28.03
19783;BME280;10051;40.294;-3.754;2022-09-01T04:45:59;94006.19;;;22.49;28.17
19783;BME280;10051;40.294;-3.754;2022-09-01T04:48:24;94048.94;;;22.92;27.83
19783;BME280;10051;40.294;-3.754;2022-09-01T04:50:51;94035.00;;;22.82;28.15
19783;BME280;10051;40.294;-3.754;2022-09-01T04:53:17;94041.13;;;23.06;27.93
19783;BME280;10051;40.294;-3.754;2022-09-01T04:55:44;93997.78;;;22.77;28.30
19783;BME280;10051;40.294;-3.754;2022-09-01T04:58:14;94073.19;;;23.26;28.52
19783;BME280;10051;40.294;-3.754;2022-09-01T05:00:42;94075.16;;;23.29;28.29
19783;BME280;10051;40.294;-3.754;2022-09-01T05:03:09;94071.94;;;22.93;28.32
19783;BME280;10051;40.294;-3.754;2022-09-01T05:05:44;94036.41;;;22.49;29.07
19783;BME280;10051;40.294;-3.754;2022-09-01T05:08:12;94068.38;;;22.62;29.00
19783;BME280;10051;40.294;-3.754;2022-09-01T05:10:43;94067.25;;;22.63;28.76
19783;BME280;10051;40.294;-3.754;2022-09-01T05:13:12;94061.91;;;22.43;28.98
19783;BME280;10051;40.294;-3.754;2022-09-01T05:15:42;94068.28;;;22.35;29.27
19783;BME280;10051;40.294;-3.754;2022-09-01T05:18:20;94077.56;;;22.41;30.14
19783;BME280;10051;40.294;-3.754;2022-09-01T05:20:50;94086.78;;;22.63;29.99
19783;BME280;10051;40.294;-3.754;2022-09-01T05:23:17;94093.03;;;22.71;30.07
19783;BME280;10051;40.294;-3.754;2022-09-01T05:25:48;94082.50;;;22.82;30.04
19783;BME280;10051;40.294;-3.754;2022-09-01T05:28:15;94079.09;;;22.85;29.85
19783;BME280;10051;40.294;-3.754;2022-09-01T05:30:44;94092.91;;;22.87;29.83
19783;BME280;10051;40.294;-3.754;2022-09-01T05:33:10;94027.75;;;22.36;29.89
19783;BME280;10051;40.294;-3.754;2022-09-01T05:35:39;94083.63;;;22.81;29.96
19783;BME280;10051;40.294;-3.754;2022-09-01T05:38:08;94092.63;;;22.69;30.26
19783;BME280;10051;40.294;-3.754;2022-09-01T05:40:41;94062.59;;;22.60;30.48
19783;BME280;10051;40.294;-3.754;2022-09-01T05:43:12;94019.44;;;22.41;30.20
19783;BME280;10051;40.294;-3.754;2022-09-01T05:45:42;94090.69;;;22.93;29.90
19783;BME280;10051;40.294;-3.754;2022-09-01T05:48:11;94093.75;;;22.91;29.53
19783;BME280;10051;40.294;-3.754;2022-09-01T05:50:41;94103.41;;;22.99;29.33
19783;BME280;10051;40.294;-3.754;2022-09-01T05:53:11;94101.97;;;22.79;29.47
19783;BME280;10051;40.294;-3.754;2022-09-01T05:55:45;94043.81;;;22.36;29.29
19783;BME280;10051;40.294;-3.754;2022-09-01T05:58:13;94086.56;;;22.72;29.53
19783;BME280;10051;40.294;-3.754;2022-09-01T06:00:43;94100.16;;;22.86;29.84
19783;BME280;10051;40.294;-3.754;2022-09-01T06:03:13;94106.13;;;22.76;29.45
19783;BME280;10051;40.294;-3.754;2022-09-01T06:05:40;93975.06;;;21.97;29.56
19783;BME280;10051;40.294;-3.754;2022-09-01T06:08:07;94105.94;;;22.88;29.41
19783;BME280;10051;40.294;-3.754;2022-09-01T06:10:38;94031.19;;;22.37;29.21
19783;BME280;10051;40.294;-3.754;2022-09-01T06:13:08;94046.53;;;22.60;28.92
19783;BME280;10051;40.294;-3.754;2022-09-01T06:15:35;94085.59;;;22.84;29.03
19783;BME280;10051;40.294;-3.754;2022-09-01T06:18:04;94004.00;;;22.35;28.89
19783;BME280;10051;40.294;-3.754;2022-09-01T06:20:31;94090.41;;;22.98;28.58
19783;BME280;10051;40.294;-3.754;2022-09-01T06:22:57;94042.00;;;22.64;28.93
19783;BME280;10051;40.294;-3.754;2022-09-01T06:25:22;94062.78;;;22.70;28.81
19783;BME280;10051;40.294;-3.754;2022-09-01T06:27:50;94109.16;;;22.98;29.02
19783;BME280;10051;40.294;-3.754;2022-09-01T06:30:17;94100.69;;;22.96;29.02
19783;BME280;10051;40.294;-3.754;2022-09-01T06:32:49;94100.47;;;22.81;29.69
19783;BME280;10051;40.294;-3.754;2022-09-01T06:35:16;94064.88;;;22.57;29.55
19783;BME280;10051;40.294;-3.754;2022-09-01T06:37:43;94070.16;;;22.54;31.18
19783;BME280;10051;40.294;-3.754;2022-09-01T06:40:11;94105.69;;;22.74;30.69
19783;BME280;10051;40.294;-3.754;2022-09-01T06:42:47;93938.78;;;21.57;29.29
19783;BME280;10051;40.294;-3.754;2022-09-01T06:45:14;94124.59;;;22.81;29.54
19783;BME280;10051;40.294;-3.754;2022-09-01T06:47:44;94107.31;;;22.79;29.15
19783;BME280;10051;40.294;-3.754;2022-09-01T06:50:14;94055.00;;;22.62;28.91
19783;BME280;10051;40.294;-3.754;2022-09-01T06:52:44;94086.28;;;23.04;28.75
19783;BME280;10051;40.294;-3.754;2022-09-01T06:55:12;94117.50;;;23.43;29.14
19783;BME280;10051;40.294;-3.754;2022-09-01T06:57:38;93969.84;;;22.51;27.37
19783;BME280;10051;40.294;-3.754;2022-09-01T07:00:10;94125.69;;;23.81;28.04
19783;BME280;10051;40.294;-3.754;2022-09-01T07:02:46;94114.56;;;24.13;26.83
19783;BME280;10051;40.294;-3.754;2022-09-01T07:05:15;94126.41;;;24.42;27.76
19783;BME280;10051;40.294;-3.754;2022-09-01T07:07:51;94124.19;;;24.48;26.94
19783;BME280;10051;40.294;-3.754;2022-09-01T07:10:24;94078.44;;;24.44;26.32
19783;BME280;10051;40.294;-3.754;2022-09-01T07:12:52;94099.94;;;24.82;25.83
19783;BME280;10051;40.294;-3.754;2022-09-01T07:15:23;94139.44;;;25.23;24.20
19783;BME280;10051;40.294;-3.754;2022-09-01T07:17:51;94113.88;;;24.99;23.94
19783;BME280;10051;40.294;-3.754;2022-09-01T07:20:19;94152.97;;;25.34;24.41
19783;BME280;10051;40.294;-3.754;2022-09-01T07:22:47;94159.91;;;25.35;24.13
19783;BME280;10051;40.294;-3.754;2022-09-01T07:25:13;94164.25;;;25.50;23.39
19783;BME280;10051;40.294;-3.754;2022-09-01T07:27:40;94162.44;;;25.65;23.08
19783;BME280;10051;40.294;-3.754;2022-09-01T07:30:13;94166.00;;;25.88;24.39
19783;BME280;10051;40.294;-3.754;2022-09-01T07:32:39;94169.03;;;25.75;24.64
19783;BME280;10051;40.294;-3.754;2022-09-01T07:35:08;94135.25;;;25.89;24.74
19783;BME280;10051;40.294;-3.754;2022-09-01T07:37:34;94160.88;;;26.35;24.91
19783;BME280;10051;40.294;-3.754;2022-09-01T07:40:05;94138.09;;;26.18;24.41
19783;BME280;10051;40.294;-3.754;2022-09-01T07:42:31;94162.38;;;26.32;24.60
19783;BME280;10051;40.294;-3.754;2022-09-01T07:44:56;94104.66;;;26.30;24.85
19783;BME280;10051;40.294;-3.754;2022-09-01T07:47:22;94162.53;;;26.83;24.88
19783;BME280;10051;40.294;-3.754;2022-09-01T07:49:48;94158.66;;;26.77;25.34
19783;BME280;10051;40.294;-3.754;2022-09-01T07:52:13;94140.13;;;26.61;25.16
19783;BME280;10051;40.294;-3.754;2022-09-01T07:54:39;94155.56;;;26.71;25.21
19783;BME280;10051;40.294;-3.754;2022-09-01T07:57:04;94094.69;;;26.48;24.79
19783;BME280;10051;40.294;-3.754;2022-09-01T07:59:30;94021.41;;;25.99;25.07
19783;BME280;10051;40.294;-3.754;2022-09-01T08:01:57;94147.53;;;26.89;25.14
19783;BME280;10051;40.294;-3.754;2022-09-01T08:04:23;94073.13;;;26.48;25.62
19783;BME280;10051;40.294;-3.754;2022-09-01T08:06:49;94122.88;;;26.83;25.65
19783;BME280;10051;40.294;-3.754;2022-09-01T08:09:14;94142.53;;;27.06;24.86
19783;BME280;10051;40.294;-3.754;2022-09-01T08:11:40;94042.69;;;26.55;24.73
19783;BME280;10051;40.294;-3.754;2022-09-01T08:14:06;94093.97;;;26.91;24.64
19783;BME280;10051;40.294;-3.754;2022-09-01T08:16:32;94145.22;;;27.35;24.62
19783;BME280;10051;40.294;-3.754;2022-09-01T08:18:58;94147.53;;;27.25;24.45
19783;BME280;10051;40.294;-3.754;2022-09-01T08:21:24;94068.53;;;26.85;24.61
19783;BME280;10051;40.294;-3.754;2022-09-01T08:23:52;94132.50;;;27.21;24.64
19783;BME280;10051;40.294;-3.754;2022-09-01T08:26:21;94097.81;;;26.79;24.76
19783;BME280;10051;40.294;-3.754;2022-09-01T08:28:48;94113.63;;;27.02;24.65
19783;BME280;10051;40.294;-3.754;2022-09-01T08:31:15;94088.19;;;26.96;24.52
19783;BME280;10051;40.294;-3.754;2022-09-01T08:33:42;94058.50;;;27.00;24.71
19783;BME280;10051;40.294;-3.754;2022-09-01T08:36:11;94095.09;;;27.34;24.56
19783;BME280;10051;40.294;-3.754;2022-09-01T08:38:37;94161.34;;;28.00;24.53
19783;BME280;10051;40.294;-3.754;2022-09-01T08:41:05;94168.72;;;27.74;24.52
19783;BME280;10051;40.294;-3.754;2022-09-01T08:43:58;94168.78;;;27.59;24.39
19783;BME280;10051;40.294;-3.754;2022-09-01T08:46:30;94139.47;;;27.54;24.29
19783;BME280;10051;40.294;-3.754;2022-09-01T08:49:04;94112.47;;;27.54;24.20
19783;BME280;10051;40.294;-3.754;2022-09-01T08:51:38;94093.94;;;27.56;24.12
19783;BME280;10051;40.294;-3.754;2022-09-01T08:56:48;94152.03;;;28.08;23.85
19783;BME280;10051;40.294;-3.754;2022-09-01T08:59:18;94143.59;;;27.99;23.86
19783;BME280;10051;40.294;-3.754;2022-09-01T09:10:17;94161.22;;;28.36;23.66
19783;BME280;10051;40.294;-3.754;2022-09-01T09:13:06;94178.44;;;28.71;24.00
19783;BME280;10051;40.294;-3.754;2022-09-01T09:15:55;94178.31;;;28.93;23.27
19783;BME280;10051;40.294;-3.754;2022-09-01T09:21:09;94150.31;;;29.18;23.24
19783;BME280;10051;40.294;-3.754;2022-09-01T09:23:42;94119.47;;;29.04;23.16
19783;BME280;10051;40.294;-3.754;2022-09-01T09:26:09;94178.28;;;29.53;22.85
19783;BME280;10051;40.294;-3.754;2022-09-01T09:28:35;94167.50;;;29.46;22.93
19783;BME280;10051;40.294;-3.754;2022-09-01T09:33:55;94114.28;;;29.28;22.28
19783;BME280;10051;40.294;-3.754;2022-09-01T09:36:28;94132.28;;;29.49;22.26
19783;BME280;10051;40.294;-3.754;2022-09-01T09:39:10;94148.00;;;29.65;21.36
19783;BME280;10051;40.294;-3.754;2022-09-01T09:41:38;94118.44;;;29.36;20.86
19783;BME280;10051;40.294;-3.754;2022-09-01T09:44:15;94173.38;;;29.82;21.19
19783;BME280;10051;40.294;-3.754;2022-09-01T09:46:44;94144.22;;;29.94;20.81
19783;BME280;10051;40.294;-3.754;2022-09-01T09:49:18;94154.81;;;30.19;20.31
19783;BME280;10051;40.294;-3.754;2022-09-01T09:51:47;94161.84;;;30.44;20.01
19783;BME280;10051;40.294;-3.754;2022-09-01T09:54:18;94091.13;;;30.00;19.64
19783;BME280;10051;40.294;-3.754;2022-09-01T09:56:45;94160.03;;;30.34;20.27
19783;BME280;10051;40.294;-3.754;2022-09-01T09:59:26;94088.06;;;29.94;20.25
19783;BME280;10051;40.294;-3.754;2022-09-01T10:01:56;94138.47;;;30.58;19.59
19783;BME280;10051;40.294;-3.754;2022-09-01T10:04:37;94133.16;;;30.74;20.25
19783;BME280;10051;40.294;-3.754;2022-09-01T10:07:41;94137.47;;;30.99;19.78
19783;BME280;10051;40.294;-3.754;2022-09-01T10:12:57;94137.41;;;31.30;19.35
19783;BME280;10051;40.294;-3.754;2022-09-01T10:15:29;94130.91;;;31.48;19.01
19783;BME280;10051;40.294;-3.754;2022-09-01T10:18:08;94156.50;;;31.70;18.67
19783;BME280;10051;40.294;-3.754;2022-09-01T10:20:43;94139.06;;;31.48;19.18
19783;BME280;10051;40.294;-3.754;2022-09-01T10:23:10;94107.41;;;31.37;18.89
19783;BME280;10051;40.294;-3.754;2022-09-01T10:25:36;94126.28;;;31.44;18.11
19783;BME280;10051;40.294;-3.754;2022-09-01T10:28:16;94144.00;;;31.53;18.16
19783;BME280;10051;40.294;-3.754;2022-09-01T10:30:45;94092.88;;;31.24;18.45
19783;BME280;10051;40.294;-3.754;2022-09-01T10:33:15;94131.81;;;31.61;19.18
19783;BME280;10051;40.294;-3.754;2022-09-01T10:35:43;94111.69;;;31.58;19.15
19783;BME280;10051;40.294;-3.754;2022-09-01T10:38:16;94121.44;;;31.80;18.95
19783;BME280;10051;40.294;-3.754;2022-09-01T10:40:48;94123.19;;;31.90;19.39
19783;BME280;10051;40.294;-3.754;2022-09-01T10:43:45;94115.91;;;32.03;19.50
19783;BME280;10051;40.294;-3.754;2022-09-01T10:48:51;94049.63;;;31.57;19.66
19783;BME280;10051;40.294;-3.754;2022-09-01T10:53:50;94103.19;;;32.00;19.95
19783;BME280;10051;40.294;-3.754;2022-09-01T11:04:15;94091.59;;;32.37;18.64
19783;BME280;10051;40.294;-3.754;2022-09-01T11:09:20;94050.31;;;32.01;19.10
19783;BME280;10051;40.294;-3.754;2022-09-01T11:11:55;94075.75;;;32.11;18.82
19783;BME280;10051;40.294;-3.754;2022-09-01T11:14:26;93976.34;;;31.33;18.82
19783;BME280;10051;40.294;-3.754;2022-09-01T11:17:35;94072.94;;;31.98;18.47
19783;BME280;10051;40.294;-3.754;2022-09-01T11:22:43;94069.78;;;32.00;17.84
19783;BME280;10051;40.294;-3.754;2022-09-01T11:25:33;94068.34;;;32.12;18.87
19783;BME280;10051;40.294;-3.754;2022-09-01T11:28:00;94068.97;;;32.40;18.50
19783;BME280;10051;40.294;-3.754;2022-09-01T11:33:01;94049.88;;;32.60;17.52
19783;BME280;10051;40.294;-3.754;2022-09-01T11:35:32;94058.28;;;32.66;18.11
19783;BME280;10051;40.294;-3.754;2022-09-01T11:38:03;94064.94;;;32.81;17.54
19783;BME280;10051;40.294;-3.754;2022-09-01T11:40:33;94064.34;;;32.90;17.82
19783;BME280;10051;40.294;-3.754;2022-09-01T11:43:10;94019.00;;;32.67;17.71
19783;BME280;10051;40.294;-3.754;2022-09-01T11:46:04;94071.22;;;32.95;17.57
19783;BME280;10051;40.294;-3.754;2022-09-01T11:48:32;94063.31;;;32.84;17.03
19783;BME280;10051;40.294;-3.754;2022-09-01T11:51:00;94053.03;;;32.91;17.90
19783;BME280;10051;40.294;-3.754;2022-09-01T11:53:26;94038.06;;;33.00;17.97
19783;BME280;10051;40.294;-3.754;2022-09-01T11:55:54;94032.34;;;33.11;17.19
19783;BME280;10051;40.294;-3.754;2022-09-01T12:00:54;94058.91;;;33.36;16.66
19783;BME280;10051;40.294;-3.754;2022-09-01T12:03:25;94029.66;;;32.94;16.81
19783;BME280;10051;40.294;-3.754;2022-09-01T12:06:00;94051.16;;;33.05;16.53
19783;BME280;10051;40.294;-3.754;2022-09-01T12:08:31;94028.69;;;33.01;17.11
19783;BME280;10051;40.294;-3.754;2022-09-01T12:11:12;94005.19;;;33.07;17.36
19783;BME280;10051;40.294;-3.754;2022-09-01T12:13:54;94039.97;;;33.32;16.91
19783;BME280;10051;40.294;-3.754;2022-09-01T12:16:20;94038.09;;;33.46;16.93
19783;BME280;10051;40.294;-3.754;2022-09-01T12:18:49;93939.25;;;32.86;16.42
19783;BME280;10051;40.294;-3.754;2022-09-01T12:21:26;93959.34;;;33.05;16.56
19783;BME280;10051;40.294;-3.754;2022-09-01T12:23:52;94012.13;;;33.41;16.58
19783;BME280;10051;40.294;-3.754;2022-09-01T12:26:25;93996.44;;;33.45;16.57
19783;BME280;10051;40.294;-3.754;2022-09-01T12:28:52;93956.41;;;33.13;16.75
19783;BME280;10051;40.294;-3.754;2022-09-01T12:31:22;94018.75;;;33.40;17.40
19783;BME280;10051;40.294;-3.754;2022-09-01T12:33:49;94027.41;;;33.51;17.30
19783;BME280;10051;40.294;-3.754;2022-09-01T12:36:30;94013.25;;;33.57;17.35
19783;BME280;10051;40.294;-3.754;2022-09-01T12:39:19;93969.63;;;33.44;16.82
19783;BME280;10051;40.294;-3.754;2022-09-01T12:41:46;94002.53;;;33.79;17.11
19783;BME280;10051;40.294;-3.754;2022-09-01T12:47:07;94022.34;;;34.22;16.71
19783;BME280;10051;40.294;-3.754;2022-09-01T12:49:42;93969.53;;;33.60;16.26
19783;BME280;10051;40.294;-3.754;2022-09-01T12:55:09;94012.53;;;33.69;15.75
19783;BME280;10051;40.294;-3.754;2022-09-01T12:57:52;94025.31;;;33.72;16.25
19783;BME280;10051;40.294;-3.754;2022-09-01T13:00:35;94035.06;;;33.99;16.36
19783;BME280;10051;40.294;-3.754;2022-09-01T13:05:37;94034.53;;;34.04;17.08
19783;BME280;10051;40.294;-3.754;2022-09-01T13:10:41;93975.31;;;33.92;16.70
19783;BME280;10051;40.294;-3.754;2022-09-01T13:13:08;93965.16;;;34.05;16.75
19783;BME280;10051;40.294;-3.754;2022-09-01T13:15:36;94027.28;;;34.53;15.97
19783;BME280;10051;40.294;-3.754;2022-09-01T13:18:02;94023.25;;;34.45;15.43
19783;BME280;10051;40.294;-3.754;2022-09-01T13:20:28;93976.50;;;34.04;16.33
19783;BME280;10051;40.294;-3.754;2022-09-01T13:22:54;93965.34;;;33.85;15.78
19783;BME280;10051;40.294;-3.754;2022-09-01T13:25:21;94019.25;;;33.94;16.34
19783;BME280;10051;40.294;-3.754;2022-09-01T13:27:47;93896.13;;;32.98;16.59
19783;BME280;10051;40.294;-3.754;2022-09-01T13:30:15;94016.19;;;33.92;16.25
19783;BME280;10051;40.294;-3.754;2022-09-01T13:32:42;94017.31;;;34.07;15.99
19783;BME280;10051;40.294;-3.754;2022-09-01T13:35:10;94011.00;;;34.10;15.46
19783;BME280;10051;40.294;-3.754;2022-09-01T13:37:35;93899.09;;;33.33;15.65
19783;BME280;10051;40.294;-3.754;2022-09-01T13:40:02;93953.44;;;33.79;15.46
19783;BME280;10051;40.294;-3.754;2022-09-01T13:42:29;93979.00;;;33.98;16.05
19783;BME280;10051;40.294;-3.754;2022-09-01T13:44:54;93987.00;;;34.05;15.85
19783;BME280;10051;40.294;-3.754;2022-09-01T13:47:20;93935.25;;;33.89;15.74
19783;BME280;10051;40.294;-3.754;2022-09-01T13:49:45;93971.25;;;34.35;14.99
19783;BME280;10051;40.294;-3.754;2022-09-01T13:52:11;93907.22;;;33.88;15.01
19783;BME280;10051;40.294;-3.754;2022-09-01T13:54:37;93859.88;;;33.56;14.24
19783;BME280;10051;40.294;-3.754;2022-09-01T13:57:03;93986.66;;;34.29;14.85
19783;BME280;10051;40.294;-3.754;2022-09-01T13:59:28;93832.91;;;33.06;15.40